sensor_id;sensor_type;location;lat;lon;timestamp;pressure;altitude;pressure_sealevel;temperature;humidity
60019;BME280;45870;42.528;26.740;2023-05-02T00:00:29;100271.53;;;14.49;39.68
60019;BME280;45870;42.528;26.740;2023-05-02T00:02:56;100269.97;;;14.86;39.10
60019;BME280;45870;42.528;26.740;2023-05-02T00:05:22;100273.56;;;15.47;38.17
60019;BME280;45870;42.528;26.740;2023-05-02T00:07:50;100266.75;;;15.28;38.11
60019;BME280;45870;42.528;26.740;2023-05-02T00:10:16;100270.41;;;15.17;38.40
60019;BME280;45870;42.528;26.740;2023-05-02T00:12:42;100273.31;;;15.10;39.48
60019;BME280;45870;42.528;26.740;2023-05-02T00:15:08;100276.97;;;15.76;38.28
60019;BME280;45870;42.528;26.740;2023-05-02T00:17:33;100289.13;;;15.90;37.92
60019;BME280;45870;42.528;26.740;2023-05-02T00:19:59;100282.06;;;15.94;37.30
60019;BME280;45870;42.528;26.740;2023-05-02T00:22:25;100285.81;;;15.66;37.73
60019;BME280;45870;42.528;26.740;2023-05-02T00:24:57;100279.28;;;15.29;38.65
60019;BME280;45870;42.528;26.740;2023-05-02T00:27:23;100283.09;;;15.28;38.35
60019;BME280;45870;42.528;26.740;2023-05-02T00:29:49;100293.16;;;15.11;39.36
60019;BME280;45870;42.528;26.740;2023-05-02T00:32:17;100290.06;;;15.40;39.04
60019;BME280;45870;42.528;26.740;2023-05-02T00:34:43;100293.31;;;14.37;40.85
60019;BME280;45870;42.528;26.740;2023-05-02T00:37:08;100288.88;;;14.65;40.29
60019;BME280;45870;42.528;26.740;2023-05-02T00:39:34;100295.66;;;14.79;39.96
60019;BME280;45870;42.528;26.740;2023-05-02T00:42:01;100290.28;;;14.67;40.07
60019;BME280;45870;42.528;26.740;2023-05-02T00:44:27;100285.91;;;13.41;42.73
60019;BME280;45870;42.528;26.740;2023-05-02T00:46:56;100281.19;;;14.00;42.29
60019;BME280;45870;42.528;26.740;2023-05-02T00:49:23;100294.38;;;14.36;40.40
60019;BME280;45870;42.528;26.740;2023-05-02T00:51:49;100295.72;;;14.50;39.81
60019;BME280;45870;42.528;26.740;2023-05-02T00:54:14;100298.03;;;14.92;38.74
60019;BME280;45870;42.528;26.740;2023-05-02T00:56:40;100294.66;;;15.18;38.86
60019;BME280;45870;42.528;26.740;2023-05-02T00:59:07;100291.47;;;13.35;42.42
60019;BME280;45870;42.528;26.740;2023-05-02T01:04:42;100266.16;;;15.04;38.72
60019;BME280;45870;42.528;26.740;2023-05-02T01:15:29;100287.00;;;14.20;41.16
60019;BME280;45870;42.528;26.740;2023-05-02T01:17:56;100276.50;;;12.33;45.94
60019;BME280;45870;42.528;26.740;2023-05-02T01:20:26;100283.81;;;13.83;42.75
60019;BME280;45870;42.528;26.740;2023-05-02T01:22:56;100279.75;;;14.26;41.34
60019;BME280;45870;42.528;26.740;2023-05-02T01:25:32;100292.41;;;14.20;41.42
60019;BME280;45870;42.528;26.740;2023-05-02T01:28:28;100276.78;;;14.39;41.01
60019;BME280;45870;42.528;26.740;2023-05-02T01:30:55;100282.22;;;14.39;40.80
60019;BME280;45870;42.528;26.740;2023-05-02T01:33:23;100287.06;;;14.37;40.69
60019;BME280;45870;42.528;26.740;2023-05-02T01:35:50;100283.22;;;14.21;40.71
60019;BME280;45870;42.528;26.740;2023-05-02T01:38:17;100277.13;;;14.42;40.82
60019;BME280;45870;42.528;26.740;2023-05-02T01:40:44;100283.50;;;14.36;40.77
60019;BME280;45870;42.528;26.740;2023-05-02T01:43:13;100276.63;;;14.17;40.91
60019;BME280;45870;42.528;26.740;2023-05-02T01:45:42;100278.91;;;14.25;40.64
60019;BME280;45870;42.528;26.740;2023-05-02T01:48:09;100276.66;;;14.06;41.25
60019;BME280;45870;42.528;26.740;2023-05-02T01:50:36;100280.00;;;14.24;40.90
60019;BME280;45870;42.528;26.740;2023-05-02T01:53:03;100276.03;;;14.43;40.39
60019;BME280;45870;42.528;26.740;2023-05-02T01:55:34;100277.72;;;14.33;40.52
60019;BME280;45870;42.528;26.740;2023-05-02T01:58:01;100279.25;;;14.40;40.31
60019;BME280;45870;42.528;26.740;2023-05-02T02:00:28;100279.56;;;14.61;40.01
60019;BME280;45870;42.528;26.740;2023-05-02T02:02:56;100213.28;;;14.28;39.61
60019;BME280;45870;42.528;26.740;2023-05-02T02:05:23;100274.63;;;14.13;40.37
60019;BME280;45870;42.528;26.740;2023-05-02T02:07:50;100278.75;;;14.43;39.90
60019;BME280;45870;42.528;26.740;2023-05-02T02:10:16;100278.13;;;14.70;39.33
60019;BME280;45870;42.528;26.740;2023-05-02T02:12:46;100282.44;;;14.37;40.15
60019;BME280;45870;42.528;26.740;2023-05-02T02:15:18;100280.63;;;13.46;42.08
60019;BME280;45870;42.528;26.740;2023-05-02T02:18:04;100283.53;;;13.57;42.08
60019;BME280;45870;42.528;26.740;2023-05-02T02:20:34;100245.59;;;14.13;39.73
60019;BME280;45870;42.528;26.740;2023-05-02T02:23:03;100281.81;;;14.64;39.08
60019;BME280;45870;42.528;26.740;2023-05-02T02:25:30;100289.88;;;14.59;38.85
60019;BME280;45870;42.528;26.740;2023-05-02T02:27:56;100286.97;;;12.82;42.26
60019;BME280;45870;42.528;26.740;2023-05-02T02:30:22;100292.75;;;12.97;42.86
60019;BME280;45870;42.528;26.740;2023-05-02T02:32:48;100267.38;;;13.90;40.60
60019;BME280;45870;42.528;26.740;2023-05-02T02:35:13;100292.25;;;13.98;41.11
60019;BME280;45870;42.528;26.740;2023-05-02T02:37:47;100293.81;;;14.51;39.69
60019;BME280;45870;42.528;26.740;2023-05-02T02:40:33;100295.69;;;14.34;40.02
60019;BME280;45870;42.528;26.740;2023-05-02T02:43:02;100297.66;;;14.10;40.83
60019;BME280;45870;42.528;26.740;2023-05-02T02:45:52;100294.06;;;14.21;39.74
60019;BME280;45870;42.528;26.740;2023-05-02T02:48:24;100308.50;;;13.82;40.59
60019;BME280;45870;42.528;26.740;2023-05-02T02:51:13;100310.84;;;12.62;43.94
60019;BME280;45870;42.528;26.740;2023-05-02T02:56:38;100302.91;;;12.49;43.60
60019;BME280;45870;42.528;26.740;2023-05-02T02:59:13;100263.66;;;13.39;40.52
60019;BME280;45870;42.528;26.740;2023-05-02T03:01:42;100305.88;;;13.87;40.00
60019;BME280;45870;42.528;26.740;2023-05-02T03:04:12;100316.66;;;11.70;44.45
60019;BME280;45870;42.528;26.740;2023-05-02T03:06:40;100320.59;;;11.13;46.65
60019;BME280;45870;42.528;26.740;2023-05-02T03:09:14;100320.22;;;13.01;42.28
60019;BME280;45870;42.528;26.740;2023-05-02T03:11:42;100323.63;;;13.66;40.91
60019;BME280;45870;42.528;26.740;2023-05-02T03:14:08;100319.63;;;13.34;41.24
60019;BME280;45870;42.528;26.740;2023-05-02T03:16:40;100324.84;;;13.47;42.11
60019;BME280;45870;42.528;26.740;2023-05-02T03:19:06;100323.78;;;13.13;42.83
60019;BME280;45870;42.528;26.740;2023-05-02T03:21:33;100302.28;;;12.88;43.76
60019;BME280;45870;42.528;26.740;2023-05-02T03:24:00;100326.16;;;14.24;42.27
60019;BME280;45870;42.528;26.740;2023-05-02T03:26:27;100325.88;;;15.71;40.95
60019;BME280;45870;42.528;26.740;2023-05-02T03:28:53;100339.81;;;16.98;38.17
60019;BME280;45870;42.528;26.740;2023-05-02T03:31:19;100293.06;;;17.58;34.06
60019;BME280;45870;42.528;26.740;2023-05-02T03:33:46;100339.91;;;17.92;33.89
60019;BME280;45870;42.528;26.740;2023-05-02T03:36:12;100322.38;;;19.56;31.45
60019;BME280;45870;42.528;26.740;2023-05-02T03:38:38;100343.13;;;20.80;29.64
60019;BME280;45870;42.528;26.740;2023-05-02T03:41:04;100352.41;;;21.28;28.58
60019;BME280;45870;42.528;26.740;2023-05-02T03:43:30;100352.56;;;21.37;28.19
60019;BME280;45870;42.528;26.740;2023-05-02T03:45:56;100359.41;;;21.68;27.99
60019;BME280;45870;42.528;26.740;2023-05-02T03:48:22;100363.97;;;19.23;31.15
60019;BME280;45870;42.528;26.740;2023-05-02T03:50:49;100348.38;;;19.38;31.01
60019;BME280;45870;42.528;26.740;2023-05-02T03:53:15;100363.97;;;19.08;31.54
60019;BME280;45870;42.528;26.740;2023-05-02T03:55:41;100371.63;;;24.27;25.56
60019;BME280;45870;42.528;26.740;2023-05-02T03:58:09;100368.53;;;26.46;23.08
60019;BME280;45870;42.528;26.740;2023-05-02T04:00:35;100374.75;;;27.55;21.29
60019;BME280;45870;42.528;26.740;2023-05-02T04:03:01;100377.97;;;25.44;22.94
60019;BME280;45870;42.528;26.740;2023-05-02T04:05:27;100382.84;;;26.40;21.69
60019;BME280;45870;42.528;26.740;2023-05-02T04:07:54;100389.59;;;26.73;22.12
60019;BME280;45870;42.528;26.740;2023-05-02T04:10:19;100387.78;;;28.68;20.23
60019;BME280;45870;42.528;26.740;2023-05-02T04:12:45;100395.88;;;28.23;20.69
60019;BME280;45870;42.528;26.740;2023-05-02T04:15:11;100394.94;;;28.40;20.45
60019;BME280;45870;42.528;26.740;2023-05-02T04:17:37;100391.78;;;30.10;19.40
60019;BME280;45870;42.528;26.740;2023-05-02T04:20:03;100242.38;;;30.14;18.33
60019;BME280;45870;42.528;26.740;2023-05-02T04:22:30;100394.41;;;30.80;18.28
60019;BME280;45870;42.528;26.740;2023-05-02T04:24:55;100398.75;;;30.16;18.47
60019;BME280;45870;42.528;26.740;2023-05-02T04:27:21;100405.22;;;30.81;18.26
60019;BME280;45870;42.528;26.740;2023-05-02T04:29:48;100401.69;;;30.96;18.40
60019;BME280;45870;42.528;26.740;2023-05-02T04:32:14;100363.88;;;29.62;19.46
60019;BME280;45870;42.528;26.740;2023-05-02T04:34:40;100392.59;;;30.59;18.16
60019;BME280;45870;42.528;26.740;2023-05-02T04:37:06;100392.84;;;30.18;18.96
60019;BME280;45870;42.528;26.740;2023-05-02T04:39:32;100400.88;;;27.92;21.58
60019;BME280;45870;42.528;26.740;2023-05-02T04:41:58;100398.22;;;26.63;23.27
60019;BME280;45870;42.528;26.740;2023-05-02T04:44:23;100401.84;;;23.46;26.95
60019;BME280;45870;42.528;26.740;2023-05-02T04:46:50;100398.03;;;23.60;27.69
60019;BME280;45870;42.528;26.740;2023-05-02T04:49:15;100396.41;;;24.55;26.67
60019;BME280;45870;42.528;26.740;2023-05-02T04:51:41;100390.94;;;25.88;24.72
60019;BME280;45870;42.528;26.740;2023-05-02T04:54:07;100397.13;;;22.95;27.93
60019;BME280;45870;42.528;26.740;2023-05-02T04:56:33;100395.41;;;21.96;29.65
60019;BME280;45870;42.528;26.740;2023-05-02T04:58:58;100393.97;;;23.20;27.79
60019;BME280;45870;42.528;26.740;2023-05-02T05:01:24;100395.53;;;23.45;27.46
60019;BME280;45870;42.528;26.740;2023-05-02T05:03:53;100389.69;;;24.33;27.52
60019;BME280;45870;42.528;26.740;2023-05-02T05:06:18;100394.59;;;24.09;27.73
60019;BME280;45870;42.528;26.740;2023-05-02T05:08:44;100398.41;;;25.34;25.49
60019;BME280;45870;42.528;26.740;2023-05-02T05:11:11;100403.19;;;24.49;25.71
60019;BME280;45870;42.528;26.740;2023-05-02T05:13:37;100405.16;;;24.70;25.64
60019;BME280;45870;42.528;26.740;2023-05-02T05:16:03;100238.81;;;24.43;25.64
60019;BME280;45870;42.528;26.740;2023-05-02T05:18:29;100384.22;;;28.29;22.08
60019;BME280;45870;42.528;26.740;2023-05-02T05:20:55;100410.19;;;28.34;22.02
60019;BME280;45870;42.528;26.740;2023-05-02T05:23:20;100355.97;;;30.85;19.36
60019;BME280;45870;42.528;26.740;2023-05-02T05:25:46;100376.13;;;32.40;17.18
60019;BME280;45870;42.528;26.740;2023-05-02T05:28:12;100410.56;;;33.14;17.00
60019;BME280;45870;42.528;26.740;2023-05-02T05:30:38;100408.53;;;29.65;19.68
60019;BME280;45870;42.528;26.740;2023-05-02T05:33:04;100411.63;;;28.90;21.02
60019;BME280;45870;42.528;26.740;2023-05-02T05:35:29;100416.50;;;29.67;21.90
60019;BME280;45870;42.528;26.740;2023-05-02T05:37:57;100424.66;;;28.77;21.92
60019;BME280;45870;42.528;26.740;2023-05-02T05:40:22;100420.47;;;29.33;21.07
60019;BME280;45870;42.528;26.740;2023-05-02T05:42:48;100420.06;;;29.02;21.13
60019;BME280;45870;42.528;26.740;2023-05-02T05:45:14;100421.06;;;28.76;20.70
60019;BME280;45870;42.528;26.740;2023-05-02T05:47:41;100418.63;;;28.08;21.31
60019;BME280;45870;42.528;26.740;2023-05-02T05:50:07;100423.13;;;26.71;23.45
60019;BME280;45870;42.528;26.740;2023-05-02T05:52:33;100425.41;;;26.78;25.58
60019;BME280;45870;42.528;26.740;2023-05-02T05:54:59;100413.38;;;24.62;26.20
60019;BME280;45870;42.528;26.740;2023-05-02T05:57:24;100422.97;;;24.64;27.55
60019;BME280;45870;42.528;26.740;2023-05-02T05:59:50;100423.84;;;24.38;27.96
60019;BME280;45870;42.528;26.740;2023-05-02T06:02:16;100426.44;;;25.42;27.25
60019;BME280;45870;42.528;26.740;2023-05-02T06:04:42;100419.44;;;26.93;24.47
60019;BME280;45870;42.528;26.740;2023-05-02T06:07:07;100300.22;;;25.37;24.39
60019;BME280;45870;42.528;26.740;2023-05-02T06:09:33;100428.34;;;26.64;23.25
60019;BME280;45870;42.528;26.740;2023-05-02T06:12:00;100431.16;;;25.05;24.70
60019;BME280;45870;42.528;26.740;2023-05-02T06:14:26;100431.03;;;28.02;22.24
60019;BME280;45870;42.528;26.740;2023-05-02T06:16:52;100430.00;;;28.82;20.83
60019;BME280;45870;42.528;26.740;2023-05-02T06:19:18;100409.75;;;28.52;21.11
60019;BME280;45870;42.528;26.740;2023-05-02T06:21:43;100438.06;;;29.91;18.93
60019;BME280;45870;42.528;26.740;2023-05-02T06:24:09;100429.44;;;29.84;21.74
60019;BME280;45870;42.528;26.740;2023-05-02T06:26:35;100421.41;;;29.82;20.94
60019;BME280;45870;42.528;26.740;2023-05-02T06:29:01;100431.69;;;30.99;20.26
60019;BME280;45870;42.528;26.740;2023-05-02T06:31:26;100426.16;;;30.51;18.68
60019;BME280;45870;42.528;26.740;2023-05-02T06:33:52;100428.25;;;30.42;18.10
60019;BME280;45870;42.528;26.740;2023-05-02T06:36:18;100440.53;;;30.89;19.37
60019;BME280;45870;42.528;26.740;2023-05-02T06:38:43;100421.50;;;30.31;19.94
60019;BME280;45870;42.528;26.740;2023-05-02T06:41:13;100436.06;;;32.93;18.07
60019;BME280;45870;42.528;26.740;2023-05-02T06:43:39;100428.53;;;31.01;18.78
60019;BME280;45870;42.528;26.740;2023-05-02T06:46:07;100431.13;;;27.76;22.32
60019;BME280;45870;42.528;26.740;2023-05-02T06:48:34;100432.97;;;26.86;23.55
60019;BME280;45870;42.528;26.740;2023-05-02T06:51:00;100427.03;;;29.08;23.10
60019;BME280;45870;42.528;26.740;2023-05-02T06:53:29;100403.34;;;27.85;22.54
60019;BME280;45870;42.528;26.740;2023-05-02T06:55:55;100435.81;;;27.84;24.23
60019;BME280;45870;42.528;26.740;2023-05-02T06:58:20;100437.72;;;28.18;23.88
60019;BME280;45870;42.528;26.740;2023-05-02T07:00:46;100433.41;;;28.67;23.11
60019;BME280;45870;42.528;26.740;2023-05-02T07:03:13;100421.16;;;31.20;20.74
60019;BME280;45870;42.528;26.740;2023-05-02T07:05:39;100431.44;;;30.92;21.19
60019;BME280;45870;42.528;26.740;2023-05-02T07:08:05;100437.81;;;28.59;21.50
60019;BME280;45870;42.528;26.740;2023-05-02T07:10:31;100433.25;;;29.79;21.03
60019;BME280;45870;42.528;26.740;2023-05-02T07:12:56;100430.59;;;29.50;22.37
60019;BME280;45870;42.528;26.740;2023-05-02T07:15:22;100437.56;;;28.14;23.78
60019;BME280;45870;42.528;26.740;2023-05-02T07:17:48;100432.53;;;28.66;22.55
60019;BME280;45870;42.528;26.740;2023-05-02T07:20:13;100425.28;;;29.57;21.49
60019;BME280;45870;42.528;26.740;2023-05-02T07:22:39;100425.00;;;31.16;19.37
60019;BME280;45870;42.528;26.740;2023-05-02T07:25:05;100430.13;;;27.80;24.04
60019;BME280;45870;42.528;26.740;2023-05-02T07:27:31;100422.22;;;29.38;21.32
60019;BME280;45870;42.528;26.740;2023-05-02T07:29:57;100424.50;;;30.13;19.43
60019;BME280;45870;42.528;26.740;2023-05-02T07:32:22;100430.19;;;31.30;18.46
60019;BME280;45870;42.528;26.740;2023-05-02T07:34:50;100437.25;;;27.99;22.39
60019;BME280;45870;42.528;26.740;2023-05-02T07:37:21;100434.69;;;27.85;22.72
60019;BME280;45870;42.528;26.740;2023-05-02T07:39:46;100441.56;;;28.25;21.17
60019;BME280;45870;42.528;26.740;2023-05-02T07:42:12;100434.25;;;27.66;23.47
60019;BME280;45870;42.528;26.740;2023-05-02T07:44:38;100431.16;;;27.59;20.05
60019;BME280;45870;42.528;26.740;2023-05-02T07:47:03;100427.88;;;26.79;21.36
60019;BME280;45870;42.528;26.740;2023-05-02T07:49:29;100430.06;;;27.08;19.23
60019;BME280;45870;42.528;26.740;2023-05-02T07:51:56;100435.31;;;28.37;20.72
60019;BME280;45870;42.528;26.740;2023-05-02T07:54:21;100427.44;;;26.95;22.02
60019;BME280;45870;42.528;26.740;2023-05-02T07:56:49;100438.41;;;27.98;21.19
60019;BME280;45870;42.528;26.740;2023-05-02T07:59:14;100436.66;;;25.86;22.91
60019;BME280;45870;42.528;26.740;2023-05-02T08:01:41;100423.53;;;26.30;22.53
60019;BME280;45870;42.528;26.740;2023-05-02T08:04:07;100431.78;;;25.82;23.04
60019;BME280;45870;42.528;26.740;2023-05-02T08:06:34;100437.72;;;25.76;24.09
60019;BME280;45870;42.528;26.740;2023-05-02T08:09:01;100443.63;;;26.14;20.33
60019;BME280;45870;42.528;26.740;2023-05-02T08:11:26;100443.28;;;31.13;16.55
60019;BME280;45870;42.528;26.740;2023-05-02T08:13:52;100394.75;;;28.15;21.38
60019;BME280;45870;42.528;26.740;2023-05-02T08:16:18;100438.13;;;26.79;21.32
60019;BME280;45870;42.528;26.740;2023-05-02T08:18:44;100441.47;;;26.42;23.22
60019;BME280;45870;42.528;26.740;2023-05-02T08:21:10;100436.09;;;27.02;21.53
60019;BME280;45870;42.528;26.740;2023-05-02T08:23:37;100432.16;;;27.54;22.10
60019;BME280;45870;42.528;26.740;2023-05-02T08:26:03;100433.88;;;28.31;21.36
60019;BME280;45870;42.528;26.740;2023-05-02T08:28:29;100424.84;;;25.49;22.09
60019;BME280;45870;42.528;26.740;2023-05-02T08:30:55;100267.06;;;25.28;23.13
60019;BME280;45870;42.528;26.740;2023-05-02T08:33:21;100425.47;;;27.21;21.87
60019;BME280;45870;42.528;26.740;2023-05-02T08:35:47;100379.16;;;25.74;22.37
60019;BME280;45870;42.528;26.740;2023-05-02T08:38:12;100424.00;;;26.32;21.48
60019;BME280;45870;42.528;26.740;2023-05-02T08:40:39;100419.78;;;27.09;23.99
60019;BME280;45870;42.528;26.740;2023-05-02T08:43:04;100282.91;;;25.93;21.82
60019;BME280;45870;42.528;26.740;2023-05-02T08:45:34;100420.53;;;26.75;20.19
60019;BME280;45870;42.528;26.740;2023-05-02T08:48:08;100422.72;;;25.46;23.05
60019;BME280;45870;42.528;26.740;2023-05-02T08:50:43;100429.13;;;25.77;22.55
60019;BME280;45870;42.528;26.740;2023-05-02T08:53:11;100425.63;;;26.90;21.68
60019;BME280;45870;42.528;26.740;2023-05-02T08:55:39;100422.22;;;27.53;23.41
60019;BME280;45870;42.528;26.740;2023-05-02T08:58:07;100424.78;;;27.41;21.44
60019;BME280;45870;42.528;26.740;2023-05-02T09:00:37;100424.16;;;27.53;22.55
60019;BME280;45870;42.528;26.740;2023-05-02T09:03:34;100420.91;;;29.14;18.89
60019;BME280;45870;42.528;26.740;2023-05-02T09:08:38;100412.06;;;28.21;20.01
60019;BME280;45870;42.528;26.740;2023-05-02T09:11:06;100415.84;;;27.27;18.17
60019;BME280;45870;42.528;26.740;2023-05-02T09:13:45;100420.41;;;28.12;22.75
60019;BME280;45870;42.528;26.740;2023-05-02T09:16:13;100399.25;;;26.84;21.76
60019;BME280;45870;42.528;26.740;2023-05-02T09:18:46;100407.66;;;25.52;22.88
60019;BME280;45870;42.528;26.740;2023-05-02T09:21:20;100412.66;;;26.43;22.70
60019;BME280;45870;42.528;26.740;2023-05-02T09:23:51;100397.88;;;26.56;22.67
60019;BME280;45870;42.528;26.740;2023-05-02T09:26:25;100397.50;;;26.40;21.11
60019;BME280;45870;42.528;26.740;2023-05-02T09:29:03;100410.19;;;26.32;22.69
60019;BME280;45870;42.528;26.740;2023-05-02T09:31:33;100408.59;;;26.49;22.14
60019;BME280;45870;42.528;26.740;2023-05-02T09:34:12;100397.53;;;26.49;24.41
60019;BME280;45870;42.528;26.740;2023-05-02T09:36:39;100396.09;;;26.68;25.95
60019;BME280;45870;42.528;26.740;2023-05-02T09:39:13;100409.59;;;26.53;21.83
60019;BME280;45870;42.528;26.740;2023-05-02T09:41:40;100397.59;;;26.92;20.64
60019;BME280;45870;42.528;26.740;2023-05-02T09:44:09;100398.38;;;26.75;20.91
60019;BME280;45870;42.528;26.740;2023-05-02T09:46:42;100391.06;;;25.74;26.56
60019;BME280;45870;42.528;26.740;2023-05-02T09:49:08;100401.00;;;25.84;22.33
60019;BME280;45870;42.528;26.740;2023-05-02T09:51:37;100389.78;;;27.02;23.22
60019;BME280;45870;42.528;26.740;2023-05-02T09:54:03;100401.47;;;28.14;20.50
60019;BME280;45870;42.528;26.740;2023-05-02T09:56:28;100395.63;;;27.99;23.31
60019;BME280;45870;42.528;26.740;2023-05-02T09:59:13;100382.50;;;26.32;21.78
60019;BME280;45870;42.528;26.740;2023-05-02T10:01:40;100357.31;;;27.20;20.19
60019;BME280;45870;42.528;26.740;2023-05-02T10:04:11;100387.44;;;26.61;20.24
60019;BME280;45870;42.528;26.740;2023-05-02T10:06:42;100380.63;;;28.00;21.46
60019;BME280;45870;42.528;26.740;2023-05-02T10:09:09;100375.41;;;25.70;24.85
60019;BME280;45870;42.528;26.740;2023-05-02T10:11:43;100184.06;;;24.00;21.75
60019;BME280;45870;42.528;26.740;2023-05-02T10:14:10;100376.66;;;26.34;20.14
60019;BME280;45870;42.528;26.740;2023-05-02T10:16:51;100370.53;;;26.63;22.76
60019;BME280;45870;42.528;26.740;2023-05-02T10:19:23;100360.47;;;25.79;21.29
60019;BME280;45870;42.528;26.740;2023-05-02T10:21:52;100368.06;;;26.05;25.15
60019;BME280;45870;42.528;26.740;2023-05-02T10:24:19;100358.63;;;26.71;23.26
60019;BME280;45870;42.528;26.740;2023-05-02T10:26:47;100363.22;;;26.10;21.52
60019;BME280;45870;42.528;26.740;2023-05-02T10:29:13;100348.16;;;27.45;19.88
60019;BME280;45870;42.528;26.740;2023-05-02T10:31:40;100351.22;;;26.23;24.81
60019;BME280;45870;42.528;26.740;2023-05-02T10:34:08;100171.41;;;24.13;25.12
60019;BME280;45870;42.528;26.740;2023-05-02T10:36:35;100335.22;;;25.42;24.29
60019;BME280;45870;42.528;26.740;2023-05-02T10:39:01;100353.97;;;25.75;24.97
60019;BME280;45870;42.528;26.740;2023-05-02T10:41:30;100343.41;;;25.77;22.86
60019;BME280;45870;42.528;26.740;2023-05-02T10:43:58;100351.63;;;26.00;24.35
60019;BME280;45870;42.528;26.740;2023-05-02T10:46:35;100341.72;;;24.57;24.84
60019;BME280;45870;42.528;26.740;2023-05-02T10:49:11;100352.81;;;25.68;25.68
60019;BME280;45870;42.528;26.740;2023-05-02T10:51:38;100361.00;;;25.28;25.45
60019;BME280;45870;42.528;26.740;2023-05-02T10:54:23;100349.59;;;24.50;26.84
60019;BME280;45870;42.528;26.740;2023-05-02T10:59:31;100345.31;;;24.93;26.00
60019;BME280;45870;42.528;26.740;2023-05-02T11:01:58;100347.56;;;25.66;26.95
60019;BME280;45870;42.528;26.740;2023-05-02T11:04:24;100343.84;;;25.40;24.55
60019;BME280;45870;42.528;26.740;2023-05-02T11:11:48;100347.97;;;25.51;24.78
60019;BME280;45870;42.528;26.740;2023-05-02T11:24:48;100288.88;;;24.50;26.82
60019;BME280;45870;42.528;26.740;2023-05-02T11:30:02;100338.63;;;25.39;25.99
60019;BME280;45870;42.528;26.740;2023-05-02T11:35:25;100328.66;;;24.49;26.05
60019;BME280;45870;42.528;26.740;2023-05-02T11:37:56;100331.16;;;24.72;29.52
60019;BME280;45870;42.528;26.740;2023-05-02T11:40:23;100327.34;;;25.04;26.42
60019;BME280;45870;42.528;26.740;2023-05-02T11:42:48;100319.03;;;24.82;25.75
60019;BME280;45870;42.528;26.740;2023-05-02T11:45:14;100320.34;;;24.26;27.18
60019;BME280;45870;42.528;26.740;2023-05-02T11:47:41;100314.59;;;25.17;26.06
60019;BME280;45870;42.528;26.740;2023-05-02T11:50:07;100308.59;;;25.15;30.53
60019;BME280;45870;42.528;26.740;2023-05-02T11:52:41;100316.34;;;25.35;26.29
60019;BME280;45870;42.528;26.740;2023-05-02T11:55:11;100321.19;;;24.85;26.15
60019;BME280;45870;42.528;26.740;2023-05-02T11:57:38;100322.34;;;24.70;26.45
60019;BME280;45870;42.528;26.740;2023-05-02T12:00:05;100315.28;;;24.42;26.92
60019;BME280;45870;42.528;26.740;2023-05-02T12:02:35;100319.78;;;24.52;28.38
60019;BME280;45870;42.528;26.740;2023-05-02T12:05:03;100327.59;;;23.95;25.17
60019;BME280;45870;42.528;26.740;2023-05-02T12:07:42;100321.97;;;24.27;26.99
60019;BME280;45870;42.528;26.740;2023-05-02T12:10:10;100321.97;;;24.63;27.51
60019;BME280;45870;42.528;26.740;2023-05-02T12:12:36;100316.69;;;25.11;25.85
60019;BME280;45870;42.528;26.740;2023-05-02T12:15:05;100316.06;;;24.20;25.40
60019;BME280;45870;42.528;26.740;2023-05-02T12:17:35;100310.34;;;25.42;26.74
60019;BME280;45870;42.528;26.740;2023-05-02T12:20:06;100315.84;;;24.66;25.48
60019;BME280;45870;42.528;26.740;2023-05-02T12:22:33;100269.97;;;24.21;27.84
60019;BME280;45870;42.528;26.740;2023-05-02T12:24:59;100296.16;;;25.04;26.44
60019;BME280;45870;42.528;26.740;2023-05-02T12:27:25;100305.91;;;25.32;29.27
60019;BME280;45870;42.528;26.740;2023-05-02T12:29:52;100301.06;;;24.71;26.46
60019;BME280;45870;42.528;26.740;2023-05-02T12:32:28;100238.59;;;24.30;27.89
60019;BME280;45870;42.528;26.740;2023-05-02T12:34:55;100233.72;;;24.14;27.51
60019;BME280;45870;42.528;26.740;2023-05-02T12:37:22;100298.75;;;24.28;28.05
60019;BME280;45870;42.528;26.740;2023-05-02T12:39:49;100293.69;;;24.80;27.60
60019;BME280;45870;42.528;26.740;2023-05-02T12:42:16;100295.06;;;24.33;24.38
60019;BME280;45870;42.528;26.740;2023-05-02T12:44:44;100297.47;;;25.37;24.49
60019;BME280;45870;42.528;26.740;2023-05-02T12:47:11;100233.59;;;24.55;25.67
60019;BME280;45870;42.528;26.740;2023-05-02T12:49:54;100293.94;;;25.45;24.32
60019;BME280;45870;42.528;26.740;2023-05-02T12:52:50;100282.31;;;25.57;23.89
60019;BME280;45870;42.528;26.740;2023-05-02T12:55:24;100290.50;;;25.70;22.69
60019;BME280;45870;42.528;26.740;2023-05-02T12:58:06;100281.56;;;25.65;24.34
60019;BME280;45870;42.528;26.740;2023-05-02T13:00:33;100280.34;;;25.26;22.66
60019;BME280;45870;42.528;26.740;2023-05-02T13:02:59;100276.75;;;25.96;22.43
60019;BME280;45870;42.528;26.740;2023-05-02T13:05:25;100276.94;;;25.52;22.79
60019;BME280;45870;42.528;26.740;2023-05-02T13:07:51;100274.03;;;25.57;23.04
60019;BME280;45870;42.528;26.740;2023-05-02T13:10:17;100286.63;;;25.71;23.50
60019;BME280;45870;42.528;26.740;2023-05-02T13:12:44;100284.44;;;25.60;24.06
60019;BME280;45870;42.528;26.740;2023-05-02T13:15:11;100287.56;;;26.32;23.20
60019;BME280;45870;42.528;26.740;2023-05-02T13:17:37;100267.81;;;25.51;23.99
60019;BME280;45870;42.528;26.740;2023-05-02T13:20:03;100283.69;;;25.68;23.71
60019;BME280;45870;42.528;26.740;2023-05-02T13:22:29;100224.72;;;24.89;24.92
60019;BME280;45870;42.528;26.740;2023-05-02T13:24:55;100281.72;;;25.68;24.51